Terminal Aerodrome Forecast
Issued by NWS

Home | Current Version | Previous Version | Graphics & Text | Print | Product List | Glossary On
Versions: 1 2 3 4 5 6 7 8 9 10 11 12 13 14
000
FTUS43 KBIS 161700 RRA
TAFJMS
TAF
KJMS 161743Z 1618/1718 06016G22KT P6SM OVC020
      TEMPO 1618/1621 6SM -SHSN
     FM170000 04015KT P6SM BKN035
     FM170600 02007KT P6SM BKN040=

USA.gov is the U.S. government's official web portal to all federal, state and local government web resources and services.